sensor_id;sensor_type;location;lat;lon;timestamp;P1;durP1;ratioP1;P2;durP2;ratioP2
67041;SDS011;53949;47.790;18.750;2023-05-20T00:00:10;10.32;;;6.20;;
67041;SDS011;53949;47.790;18.750;2023-05-20T00:03:15;8.10;;;6.10;;
67041;SDS011;53949;47.790;18.750;2023-05-20T00:06:19;11.48;;;5.65;;
67041;SDS011;53949;47.790;18.750;2023-05-20T00:09:23;9.87;;;6.53;;
67041;SDS011;53949;47.790;18.750;2023-05-20T00:12:26;8.57;;;6.40;;
67041;SDS011;53949;47.790;18.750;2023-05-20T00:15:29;8.35;;;5.82;;
67041;SDS011;53949;47.790;18.750;2023-05-20T00:18:32;6.87;;;5.78;;
67041;SDS011;53949;47.790;18.750;2023-05-20T00:21:35;8.15;;;5.30;;
67041;SDS011;53949;47.790;18.750;2023-05-20T00:24:38;12.00;;;6.80;;
67041;SDS011;53949;47.790;18.750;2023-05-20T00:27:42;8.45;;;6.22;;
67041;SDS011;53949;47.790;18.750;2023-05-20T00:30:45;6.30;;;5.43;;
67041;SDS011;53949;47.790;18.750;2023-05-20T00:33:48;7.65;;;4.75;;
67041;SDS011;53949;47.790;18.750;2023-05-20T00:36:51;7.53;;;5.55;;
67041;SDS011;53949;47.790;18.750;2023-05-20T00:39:55;9.25;;;5.75;;
67041;SDS011;53949;47.790;18.750;2023-05-20T00:42:58;8.75;;;5.43;;
67041;SDS011;53949;47.790;18.750;2023-05-20T00:46:01;6.78;;;4.85;;
67041;SDS011;53949;47.790;18.750;2023-05-20T00:49:05;5.32;;;4.32;;
67041;SDS011;53949;47.790;18.750;2023-05-20T00:52:08;7.25;;;4.60;;
67041;SDS011;53949;47.790;18.750;2023-05-20T00:55:12;9.80;;;6.25;;
67041;SDS011;53949;47.790;18.750;2023-05-20T00:58:15;11.75;;;6.57;;
67041;SDS011;53949;47.790;18.750;2023-05-20T01:01:18;9.57;;;6.45;;
67041;SDS011;53949;47.790;18.750;2023-05-20T01:04:22;7.68;;;6.93;;
67041;SDS011;53949;47.790;18.750;2023-05-20T01:07:26;8.77;;;6.22;;
67041;SDS011;53949;47.790;18.750;2023-05-20T01:10:29;10.07;;;6.18;;
67041;SDS011;53949;47.790;18.750;2023-05-20T01:13:44;8.40;;;6.72;;
67041;SDS011;53949;47.790;18.750;2023-05-20T01:16:48;10.95;;;7.05;;
67041;SDS011;53949;47.790;18.750;2023-05-20T01:19:54;6.93;;;6.00;;
67041;SDS011;53949;47.790;18.750;2023-05-20T01:22:58;9.43;;;6.85;;
67041;SDS011;53949;47.790;18.750;2023-05-20T01:26:01;11.07;;;7.50;;
67041;SDS011;53949;47.790;18.750;2023-05-20T01:29:04;9.38;;;7.47;;
67041;SDS011;53949;47.790;18.750;2023-05-20T01:32:11;12.48;;;7.60;;
67041;SDS011;53949;47.790;18.750;2023-05-20T01:35:18;9.52;;;7.47;;
67041;SDS011;53949;47.790;18.750;2023-05-20T01:38:24;8.75;;;6.95;;
67041;SDS011;53949;47.790;18.750;2023-05-20T01:41:28;10.00;;;6.07;;
67041;SDS011;53949;47.790;18.750;2023-05-20T01:44:32;11.63;;;7.50;;
67041;SDS011;53949;47.790;18.750;2023-05-20T01:47:36;11.30;;;6.90;;
67041;SDS011;53949;47.790;18.750;2023-05-20T01:50:39;10.55;;;6.72;;
67041;SDS011;53949;47.790;18.750;2023-05-20T01:53:42;8.20;;;6.15;;
67041;SDS011;53949;47.790;18.750;2023-05-20T01:56:45;8.95;;;7.03;;
67041;SDS011;53949;47.790;18.750;2023-05-20T01:59:49;9.90;;;6.97;;
67041;SDS011;53949;47.790;18.750;2023-05-20T02:02:54;9.50;;;6.37;;
67041;SDS011;53949;47.790;18.750;2023-05-20T02:05:58;8.25;;;6.25;;
67041;SDS011;53949;47.790;18.750;2023-05-20T02:09:02;9.17;;;6.57;;
67041;SDS011;53949;47.790;18.750;2023-05-20T02:12:07;7.50;;;6.80;;
67041;SDS011;53949;47.790;18.750;2023-05-20T02:18:17;8.35;;;6.87;;
67041;SDS011;53949;47.790;18.750;2023-05-20T02:21:21;8.35;;;7.10;;
67041;SDS011;53949;47.790;18.750;2023-05-20T02:24:24;7.25;;;6.28;;
67041;SDS011;53949;47.790;18.750;2023-05-20T02:27:28;9.68;;;7.00;;
67041;SDS011;53949;47.790;18.750;2023-05-20T02:30:32;8.10;;;6.45;;
67041;SDS011;53949;47.790;18.750;2023-05-20T02:33:37;12.30;;;6.57;;
67041;SDS011;53949;47.790;18.750;2023-05-20T02:36:40;8.15;;;6.70;;
67041;SDS011;53949;47.790;18.750;2023-05-20T02:39:43;8.52;;;7.65;;
67041;SDS011;53949;47.790;18.750;2023-05-20T02:42:47;8.45;;;7.55;;
67041;SDS011;53949;47.790;18.750;2023-05-20T02:45:50;9.52;;;6.90;;
67041;SDS011;53949;47.790;18.750;2023-05-20T02:48:54;11.15;;;7.37;;
67041;SDS011;53949;47.790;18.750;2023-05-20T02:51:57;12.98;;;7.65;;
67041;SDS011;53949;47.790;18.750;2023-05-20T02:55:01;11.90;;;7.18;;
67041;SDS011;53949;47.790;18.750;2023-05-20T02:58:04;11.85;;;8.02;;
67041;SDS011;53949;47.790;18.750;2023-05-20T03:01:08;16.25;;;8.25;;
67041;SDS011;53949;47.790;18.750;2023-05-20T03:04:11;11.48;;;7.68;;
67041;SDS011;53949;47.790;18.750;2023-05-20T03:07:14;10.50;;;7.43;;
67041;SDS011;53949;47.790;18.750;2023-05-20T03:10:23;9.43;;;7.07;;
67041;SDS011;53949;47.790;18.750;2023-05-20T03:13:27;7.93;;;7.12;;
67041;SDS011;53949;47.790;18.750;2023-05-20T03:16:33;9.95;;;5.93;;
67041;SDS011;53949;47.790;18.750;2023-05-20T03:19:37;12.70;;;7.50;;
67041;SDS011;53949;47.790;18.750;2023-05-20T03:22:41;8.43;;;5.78;;
67041;SDS011;53949;47.790;18.750;2023-05-20T03:25:44;8.95;;;6.12;;
67041;SDS011;53949;47.790;18.750;2023-05-20T03:28:47;11.30;;;5.78;;
67041;SDS011;53949;47.790;18.750;2023-05-20T03:31:51;8.90;;;5.22;;
67041;SDS011;53949;47.790;18.750;2023-05-20T03:34:54;6.53;;;5.22;;
67041;SDS011;53949;47.790;18.750;2023-05-20T03:37:59;9.00;;;5.15;;
67041;SDS011;53949;47.790;18.750;2023-05-20T03:41:03;7.20;;;5.03;;
67041;SDS011;53949;47.790;18.750;2023-05-20T03:44:07;10.20;;;4.95;;
67041;SDS011;53949;47.790;18.750;2023-05-20T03:47:10;6.25;;;5.10;;
67041;SDS011;53949;47.790;18.750;2023-05-20T03:50:14;6.20;;;5.35;;
67041;SDS011;53949;47.790;18.750;2023-05-20T03:53:17;6.65;;;5.50;;
67041;SDS011;53949;47.790;18.750;2023-05-20T03:56:21;7.62;;;5.78;;
67041;SDS011;53949;47.790;18.750;2023-05-20T03:59:26;9.75;;;8.15;;
67041;SDS011;53949;47.790;18.750;2023-05-20T04:05:33;7.55;;;5.40;;
67041;SDS011;53949;47.790;18.750;2023-05-20T04:08:38;7.85;;;4.93;;
67041;SDS011;53949;47.790;18.750;2023-05-20T04:11:42;6.75;;;5.40;;
67041;SDS011;53949;47.790;18.750;2023-05-20T04:14:44;9.02;;;4.65;;
67041;SDS011;53949;47.790;18.750;2023-05-20T04:17:48;6.05;;;4.90;;
67041;SDS011;53949;47.790;18.750;2023-05-20T04:20:53;10.18;;;5.25;;
67041;SDS011;53949;47.790;18.750;2023-05-20T04:23:58;7.90;;;5.03;;
67041;SDS011;53949;47.790;18.750;2023-05-20T04:27:01;6.55;;;4.68;;
67041;SDS011;53949;47.790;18.750;2023-05-20T04:30:05;6.72;;;5.07;;
67041;SDS011;53949;47.790;18.750;2023-05-20T04:33:10;13.82;;;5.30;;
67041;SDS011;53949;47.790;18.750;2023-05-20T04:36:14;7.17;;;4.90;;
67041;SDS011;53949;47.790;18.750;2023-05-20T04:39:18;9.25;;;5.07;;
67041;SDS011;53949;47.790;18.750;2023-05-20T04:42:24;5.75;;;4.55;;
67041;SDS011;53949;47.790;18.750;2023-05-20T04:45:27;8.68;;;4.45;;
67041;SDS011;53949;47.790;18.750;2023-05-20T04:48:31;7.95;;;4.62;;
67041;SDS011;53949;47.790;18.750;2023-05-20T04:51:34;9.00;;;4.90;;
67041;SDS011;53949;47.790;18.750;2023-05-20T04:54:37;6.28;;;4.20;;
67041;SDS011;53949;47.790;18.750;2023-05-20T04:57:42;5.57;;;4.37;;
67041;SDS011;53949;47.790;18.750;2023-05-20T05:00:46;7.05;;;4.70;;
67041;SDS011;53949;47.790;18.750;2023-05-20T05:03:50;8.05;;;5.05;;
67041;SDS011;53949;47.790;18.750;2023-05-20T05:06:55;8.15;;;4.50;;
67041;SDS011;53949;47.790;18.750;2023-05-20T05:09:59;6.95;;;4.82;;
67041;SDS011;53949;47.790;18.750;2023-05-20T05:13:03;7.47;;;4.60;;
67041;SDS011;53949;47.790;18.750;2023-05-20T05:16:07;4.62;;;4.22;;
67041;SDS011;53949;47.790;18.750;2023-05-20T05:19:10;4.82;;;4.22;;
67041;SDS011;53949;47.790;18.750;2023-05-20T05:22:15;7.68;;;4.75;;
67041;SDS011;53949;47.790;18.750;2023-05-20T05:25:18;4.45;;;4.05;;
67041;SDS011;53949;47.790;18.750;2023-05-20T05:28:22;4.93;;;4.18;;
67041;SDS011;53949;47.790;18.750;2023-05-20T05:31:25;4.62;;;4.00;;
67041;SDS011;53949;47.790;18.750;2023-05-20T05:34:28;6.35;;;4.05;;
67041;SDS011;53949;47.790;18.750;2023-05-20T05:37:32;8.52;;;4.28;;
67041;SDS011;53949;47.790;18.750;2023-05-20T05:40:35;5.70;;;4.55;;
67041;SDS011;53949;47.790;18.750;2023-05-20T05:43:39;16.17;;;4.30;;
67041;SDS011;53949;47.790;18.750;2023-05-20T05:46:42;5.75;;;4.57;;
67041;SDS011;53949;47.790;18.750;2023-05-20T05:49:47;5.07;;;4.20;;
67041;SDS011;53949;47.790;18.750;2023-05-20T05:52:50;6.90;;;4.18;;
67041;SDS011;53949;47.790;18.750;2023-05-20T05:58:58;12.10;;;4.22;;
67041;SDS011;53949;47.790;18.750;2023-05-20T06:02:02;9.52;;;4.55;;
67041;SDS011;53949;47.790;18.750;2023-05-20T06:05:06;5.82;;;4.57;;
67041;SDS011;53949;47.790;18.750;2023-05-20T06:08:09;8.60;;;4.60;;
67041;SDS011;53949;47.790;18.750;2023-05-20T06:11:12;4.45;;;4.00;;
67041;SDS011;53949;47.790;18.750;2023-05-20T06:14:16;4.75;;;4.22;;
67041;SDS011;53949;47.790;18.750;2023-05-20T06:17:19;5.85;;;4.50;;
67041;SDS011;53949;47.790;18.750;2023-05-20T06:20:23;5.00;;;4.45;;
67041;SDS011;53949;47.790;18.750;2023-05-20T06:23:26;6.07;;;4.17;;
67041;SDS011;53949;47.790;18.750;2023-05-20T06:26:30;4.75;;;4.15;;
67041;SDS011;53949;47.790;18.750;2023-05-20T06:29:33;4.72;;;4.00;;
67041;SDS011;53949;47.790;18.750;2023-05-20T06:32:36;6.12;;;4.07;;
67041;SDS011;53949;47.790;18.750;2023-05-20T06:35:40;5.90;;;4.37;;
67041;SDS011;53949;47.790;18.750;2023-05-20T06:38:46;6.75;;;4.75;;
67041;SDS011;53949;47.790;18.750;2023-05-20T06:44:57;8.15;;;4.70;;
67041;SDS011;53949;47.790;18.750;2023-05-20T06:48:04;7.68;;;4.60;;
67041;SDS011;53949;47.790;18.750;2023-05-20T06:51:08;7.25;;;4.03;;
67041;SDS011;53949;47.790;18.750;2023-05-20T06:54:12;5.87;;;4.37;;
67041;SDS011;53949;47.790;18.750;2023-05-20T06:57:16;9.05;;;4.40;;
67041;SDS011;53949;47.790;18.750;2023-05-20T07:00:21;9.32;;;5.32;;
67041;SDS011;53949;47.790;18.750;2023-05-20T07:03:26;5.62;;;4.43;;
67041;SDS011;53949;47.790;18.750;2023-05-20T07:06:29;6.07;;;4.60;;
67041;SDS011;53949;47.790;18.750;2023-05-20T07:09:33;7.28;;;4.32;;
67041;SDS011;53949;47.790;18.750;2023-05-20T07:12:37;4.78;;;4.10;;
67041;SDS011;53949;47.790;18.750;2023-05-20T07:15:40;7.47;;;4.82;;
67041;SDS011;53949;47.790;18.750;2023-05-20T07:18:43;6.10;;;4.50;;
67041;SDS011;53949;47.790;18.750;2023-05-20T07:21:46;5.85;;;4.47;;
67041;SDS011;53949;47.790;18.750;2023-05-20T07:24:52;6.68;;;4.85;;
67041;SDS011;53949;47.790;18.750;2023-05-20T07:27:55;7.18;;;4.75;;
67041;SDS011;53949;47.790;18.750;2023-05-20T07:30:58;5.30;;;4.00;;
67041;SDS011;53949;47.790;18.750;2023-05-20T07:34:02;6.40;;;4.93;;
67041;SDS011;53949;47.790;18.750;2023-05-20T07:37:05;7.53;;;4.93;;
67041;SDS011;53949;47.790;18.750;2023-05-20T07:40:08;5.10;;;4.37;;
67041;SDS011;53949;47.790;18.750;2023-05-20T07:43:13;5.37;;;4.55;;
67041;SDS011;53949;47.790;18.750;2023-05-20T07:46:16;7.82;;;4.90;;
67041;SDS011;53949;47.790;18.750;2023-05-20T07:49:22;5.47;;;4.65;;
67041;SDS011;53949;47.790;18.750;2023-05-20T07:52:26;9.35;;;4.78;;
67041;SDS011;53949;47.790;18.750;2023-05-20T07:55:29;4.85;;;4.28;;
67041;SDS011;53949;47.790;18.750;2023-05-20T07:58:33;4.77;;;4.27;;
67041;SDS011;53949;47.790;18.750;2023-05-20T08:01:36;5.90;;;4.90;;
67041;SDS011;53949;47.790;18.750;2023-05-20T08:04:42;7.82;;;4.90;;
67041;SDS011;53949;47.790;18.750;2023-05-20T08:07:47;5.62;;;4.57;;
67041;SDS011;53949;47.790;18.750;2023-05-20T08:10:51;8.20;;;4.78;;
67041;SDS011;53949;47.790;18.750;2023-05-20T08:13:55;7.50;;;4.85;;
67041;SDS011;53949;47.790;18.750;2023-05-20T08:16:59;9.13;;;4.87;;
67041;SDS011;53949;47.790;18.750;2023-05-20T08:20:02;8.35;;;4.80;;
67041;SDS011;53949;47.790;18.750;2023-05-20T08:23:06;6.43;;;4.75;;
67041;SDS011;53949;47.790;18.750;2023-05-20T08:26:09;6.47;;;4.90;;
67041;SDS011;53949;47.790;18.750;2023-05-20T08:32:16;6.10;;;5.47;;
67041;SDS011;53949;47.790;18.750;2023-05-20T08:35:20;9.90;;;5.57;;
67041;SDS011;53949;47.790;18.750;2023-05-20T08:38:26;8.73;;;5.18;;
67041;SDS011;53949;47.790;18.750;2023-05-20T08:41:30;5.47;;;4.93;;
67041;SDS011;53949;47.790;18.750;2023-05-20T08:44:35;12.55;;;5.72;;
67041;SDS011;53949;47.790;18.750;2023-05-20T08:47:40;5.40;;;4.90;;
67041;SDS011;53949;47.790;18.750;2023-05-20T08:50:45;8.65;;;5.43;;
67041;SDS011;53949;47.790;18.750;2023-05-20T08:53:52;6.30;;;5.70;;
67041;SDS011;53949;47.790;18.750;2023-05-20T08:56:56;6.73;;;5.17;;
67041;SDS011;53949;47.790;18.750;2023-05-20T08:59:59;6.68;;;5.25;;
67041;SDS011;53949;47.790;18.750;2023-05-20T09:03:02;8.50;;;5.00;;
67041;SDS011;53949;47.790;18.750;2023-05-20T09:06:06;8.23;;;5.33;;
67041;SDS011;53949;47.790;18.750;2023-05-20T09:09:11;5.57;;;4.95;;
67041;SDS011;53949;47.790;18.750;2023-05-20T09:12:14;10.48;;;5.32;;
67041;SDS011;53949;47.790;18.750;2023-05-20T09:15:17;5.53;;;5.03;;
67041;SDS011;53949;47.790;18.750;2023-05-20T09:18:21;7.13;;;5.47;;
67041;SDS011;53949;47.790;18.750;2023-05-20T09:21:27;7.95;;;5.60;;
67041;SDS011;53949;47.790;18.750;2023-05-20T09:24:30;7.93;;;5.60;;
67041;SDS011;53949;47.790;18.750;2023-05-20T09:27:33;7.20;;;5.28;;
67041;SDS011;53949;47.790;18.750;2023-05-20T09:30:36;6.87;;;4.85;;
67041;SDS011;53949;47.790;18.750;2023-05-20T09:33:41;6.45;;;5.75;;
67041;SDS011;53949;47.790;18.750;2023-05-20T09:39:56;5.35;;;4.78;;
67041;SDS011;53949;47.790;18.750;2023-05-20T09:43:03;7.73;;;5.13;;
67041;SDS011;53949;47.790;18.750;2023-05-20T09:46:06;6.78;;;5.15;;
67041;SDS011;53949;47.790;18.750;2023-05-20T09:49:10;6.87;;;5.37;;
67041;SDS011;53949;47.790;18.750;2023-05-20T09:52:14;7.47;;;5.87;;
67041;SDS011;53949;47.790;18.750;2023-05-20T09:55:19;6.28;;;5.37;;
67041;SDS011;53949;47.790;18.750;2023-05-20T09:58:24;6.43;;;5.65;;
67041;SDS011;53949;47.790;18.750;2023-05-20T10:01:27;7.07;;;5.27;;
67041;SDS011;53949;47.790;18.750;2023-05-20T10:04:33;7.70;;;5.37;;
67041;SDS011;53949;47.790;18.750;2023-05-20T10:17:49;9.27;;;5.57;;
67041;SDS011;53949;47.790;18.750;2023-05-20T10:21:00;6.90;;;5.45;;
67041;SDS011;53949;47.790;18.750;2023-05-20T10:24:05;8.45;;;5.50;;
67041;SDS011;53949;47.790;18.750;2023-05-20T10:27:12;9.43;;;6.15;;
67041;SDS011;53949;47.790;18.750;2023-05-20T10:30:21;8.15;;;5.80;;
67041;SDS011;53949;47.790;18.750;2023-05-20T10:33:25;6.12;;;5.53;;
67041;SDS011;53949;47.790;18.750;2023-05-20T10:36:31;10.35;;;6.00;;
67041;SDS011;53949;47.790;18.750;2023-05-20T10:39:36;6.25;;;5.50;;
67041;SDS011;53949;47.790;18.750;2023-05-20T10:42:39;6.37;;;5.43;;
67041;SDS011;53949;47.790;18.750;2023-05-20T10:45:48;11.18;;;6.45;;
67041;SDS011;53949;47.790;18.750;2023-05-20T10:48:55;9.02;;;5.72;;
67041;SDS011;53949;47.790;18.750;2023-05-20T10:51:59;7.25;;;5.57;;
67041;SDS011;53949;47.790;18.750;2023-05-20T10:55:04;6.80;;;5.83;;
67041;SDS011;53949;47.790;18.750;2023-05-20T10:58:08;15.73;;;6.50;;
67041;SDS011;53949;47.790;18.750;2023-05-20T11:01:13;11.48;;;6.05;;
67041;SDS011;53949;47.790;18.750;2023-05-20T11:04:16;7.10;;;6.03;;
67041;SDS011;53949;47.790;18.750;2023-05-20T11:07:26;8.80;;;5.90;;
67041;SDS011;53949;47.790;18.750;2023-05-20T11:10:30;8.88;;;6.30;;
67041;SDS011;53949;47.790;18.750;2023-05-20T11:13:38;7.22;;;5.43;;
67041;SDS011;53949;47.790;18.750;2023-05-20T11:16:41;6.80;;;5.57;;
67041;SDS011;53949;47.790;18.750;2023-05-20T11:19:45;7.57;;;5.30;;
67041;SDS011;53949;47.790;18.750;2023-05-20T11:22:51;6.60;;;5.90;;
67041;SDS011;53949;47.790;18.750;2023-05-20T11:25:55;8.65;;;5.80;;
67041;SDS011;53949;47.790;18.750;2023-05-20T11:28:59;6.60;;;5.90;;
67041;SDS011;53949;47.790;18.750;2023-05-20T11:32:03;6.87;;;5.70;;
67041;SDS011;53949;47.790;18.750;2023-05-20T11:35:06;6.60;;;5.87;;
67041;SDS011;53949;47.790;18.750;2023-05-20T11:38:10;7.35;;;5.47;;
67041;SDS011;53949;47.790;18.750;2023-05-20T11:41:13;7.10;;;5.70;;
67041;SDS011;53949;47.790;18.750;2023-05-20T11:44:16;7.90;;;5.60;;
67041;SDS011;53949;47.790;18.750;2023-05-20T11:47:24;9.65;;;5.75;;
67041;SDS011;53949;47.790;18.750;2023-05-20T11:50:38;8.18;;;6.15;;
67041;SDS011;53949;47.790;18.750;2023-05-20T11:53:42;7.53;;;5.90;;
67041;SDS011;53949;47.790;18.750;2023-05-20T11:56:48;7.90;;;5.82;;
67041;SDS011;53949;47.790;18.750;2023-05-20T11:59:52;6.78;;;5.78;;
67041;SDS011;53949;47.790;18.750;2023-05-20T12:06:02;9.80;;;6.03;;
67041;SDS011;53949;47.790;18.750;2023-05-20T12:09:06;7.60;;;6.30;;
67041;SDS011;53949;47.790;18.750;2023-05-20T12:12:10;9.45;;;5.85;;
67041;SDS011;53949;47.790;18.750;2023-05-20T12:15:15;7.30;;;6.47;;
67041;SDS011;53949;47.790;18.750;2023-05-20T12:18:18;6.35;;;5.70;;
67041;SDS011;53949;47.790;18.750;2023-05-20T12:21:21;6.67;;;5.80;;
67041;SDS011;53949;47.790;18.750;2023-05-20T12:24:25;8.88;;;6.40;;
67041;SDS011;53949;47.790;18.750;2023-05-20T12:27:28;8.83;;;5.93;;
67041;SDS011;53949;47.790;18.750;2023-05-20T12:30:32;7.62;;;6.00;;
67041;SDS011;53949;47.790;18.750;2023-05-20T12:33:36;8.35;;;6.25;;
67041;SDS011;53949;47.790;18.750;2023-05-20T12:36:39;9.20;;;6.03;;
67041;SDS011;53949;47.790;18.750;2023-05-20T12:39:42;10.67;;;6.13;;
67041;SDS011;53949;47.790;18.750;2023-05-20T12:42:48;7.50;;;6.60;;
67041;SDS011;53949;47.790;18.750;2023-05-20T12:45:51;6.80;;;6.10;;
67041;SDS011;53949;47.790;18.750;2023-05-20T12:48:54;6.47;;;5.87;;
67041;SDS011;53949;47.790;18.750;2023-05-20T12:51:57;7.22;;;6.53;;
67041;SDS011;53949;47.790;18.750;2023-05-20T12:55:05;9.60;;;6.50;;
67041;SDS011;53949;47.790;18.750;2023-05-20T12:58:15;7.47;;;5.90;;
67041;SDS011;53949;47.790;18.750;2023-05-20T13:01:19;9.43;;;5.78;;
67041;SDS011;53949;47.790;18.750;2023-05-20T13:04:22;7.03;;;6.32;;
67041;SDS011;53949;47.790;18.750;2023-05-20T13:07:26;7.93;;;6.10;;
67041;SDS011;53949;47.790;18.750;2023-05-20T13:10:29;6.95;;;5.87;;
67041;SDS011;53949;47.790;18.750;2023-05-20T13:13:33;7.22;;;6.50;;
67041;SDS011;53949;47.790;18.750;2023-05-20T13:16:36;7.62;;;6.53;;
67041;SDS011;53949;47.790;18.750;2023-05-20T13:19:39;8.68;;;6.43;;
67041;SDS011;53949;47.790;18.750;2023-05-20T13:22:43;6.30;;;5.78;;
67041;SDS011;53949;47.790;18.750;2023-05-20T13:25:46;7.22;;;5.85;;
67041;SDS011;53949;47.790;18.750;2023-05-20T13:28:49;7.07;;;6.45;;
67041;SDS011;53949;47.790;18.750;2023-05-20T13:31:53;7.45;;;6.60;;
67041;SDS011;53949;47.790;18.750;2023-05-20T13:34:56;6.40;;;5.72;;
67041;SDS011;53949;47.790;18.750;2023-05-20T13:38:01;7.70;;;5.93;;
67041;SDS011;53949;47.790;18.750;2023-05-20T13:44:07;8.02;;;6.43;;
67041;SDS011;53949;47.790;18.750;2023-05-20T13:47:11;8.18;;;6.32;;
67041;SDS011;53949;47.790;18.750;2023-05-20T13:50:14;6.37;;;5.78;;
67041;SDS011;53949;47.790;18.750;2023-05-20T13:53:18;7.80;;;6.12;;
67041;SDS011;53949;47.790;18.750;2023-05-20T13:56:21;6.82;;;5.93;;
67041;SDS011;53949;47.790;18.750;2023-05-20T13:59:24;6.65;;;6.03;;
67041;SDS011;53949;47.790;18.750;2023-05-20T14:02:27;6.30;;;5.70;;
67041;SDS011;53949;47.790;18.750;2023-05-20T14:05:30;6.18;;;5.57;;
67041;SDS011;53949;47.790;18.750;2023-05-20T14:08:34;6.65;;;5.70;;
67041;SDS011;53949;47.790;18.750;2023-05-20T14:11:37;8.00;;;6.25;;
67041;SDS011;53949;47.790;18.750;2023-05-20T14:14:40;5.90;;;5.30;;
67041;SDS011;53949;47.790;18.750;2023-05-20T14:17:43;6.12;;;5.50;;
67041;SDS011;53949;47.790;18.750;2023-05-20T14:20:46;5.90;;;5.40;;
67041;SDS011;53949;47.790;18.750;2023-05-20T14:23:51;6.20;;;5.53;;
67041;SDS011;53949;47.790;18.750;2023-05-20T14:26:55;8.23;;;4.93;;
67041;SDS011;53949;47.790;18.750;2023-05-20T14:29:58;5.75;;;5.25;;
67041;SDS011;53949;47.790;18.750;2023-05-20T14:33:01;6.10;;;5.60;;
67041;SDS011;53949;47.790;18.750;2023-05-20T14:36:04;9.20;;;5.10;;
67041;SDS011;53949;47.790;18.750;2023-05-20T14:39:08;5.72;;;5.22;;
67041;SDS011;53949;47.790;18.750;2023-05-20T14:42:11;9.80;;;5.47;;
67041;SDS011;53949;47.790;18.750;2023-05-20T14:45:14;5.18;;;4.75;;
67041;SDS011;53949;47.790;18.750;2023-05-20T14:48:17;7.60;;;5.25;;
67041;SDS011;53949;47.790;18.750;2023-05-20T14:51:20;6.00;;;5.45;;
67041;SDS011;53949;47.790;18.750;2023-05-20T14:54:24;5.70;;;5.18;;
67041;SDS011;53949;47.790;18.750;2023-05-20T14:57:29;8.07;;;5.50;;
67041;SDS011;53949;47.790;18.750;2023-05-20T15:00:32;5.45;;;4.95;;
67041;SDS011;53949;47.790;18.750;2023-05-20T15:03:36;7.22;;;5.40;;
67041;SDS011;53949;47.790;18.750;2023-05-20T15:06:42;6.30;;;5.18;;
67041;SDS011;53949;47.790;18.750;2023-05-20T15:09:45;5.90;;;5.40;;
67041;SDS011;53949;47.790;18.750;2023-05-20T15:12:49;6.82;;;5.32;;
67041;SDS011;53949;47.790;18.750;2023-05-20T15:15:54;6.05;;;5.45;;
67041;SDS011;53949;47.790;18.750;2023-05-20T15:18:57;10.02;;;5.30;;
67041;SDS011;53949;47.790;18.750;2023-05-20T15:22:00;5.62;;;5.12;;
67041;SDS011;53949;47.790;18.750;2023-05-20T15:25:03;5.82;;;5.25;;
67041;SDS011;53949;47.790;18.750;2023-05-20T15:28:07;5.62;;;5.22;;
67041;SDS011;53949;47.790;18.750;2023-05-20T15:31:10;7.10;;;5.78;;
67041;SDS011;53949;47.790;18.750;2023-05-20T15:34:13;6.90;;;4.82;;
67041;SDS011;53949;47.790;18.750;2023-05-20T15:37:16;6.05;;;5.47;;
67041;SDS011;53949;47.790;18.750;2023-05-20T15:40:19;6.40;;;5.80;;
67041;SDS011;53949;47.790;18.750;2023-05-20T15:43:23;6.50;;;5.85;;
67041;SDS011;53949;47.790;18.750;2023-05-20T15:46:26;6.32;;;5.72;;
67041;SDS011;53949;47.790;18.750;2023-05-20T15:49:30;6.20;;;5.55;;
67041;SDS011;53949;47.790;18.750;2023-05-20T15:52:33;8.57;;;5.72;;
67041;SDS011;53949;47.790;18.750;2023-05-20T15:55:36;6.12;;;5.53;;
67041;SDS011;53949;47.790;18.750;2023-05-20T15:58:39;7.15;;;5.40;;
67041;SDS011;53949;47.790;18.750;2023-05-20T16:01:43;5.85;;;4.97;;
67041;SDS011;53949;47.790;18.750;2023-05-20T16:04:46;6.00;;;5.30;;
67041;SDS011;53949;47.790;18.750;2023-05-20T16:07:50;5.70;;;5.15;;
67041;SDS011;53949;47.790;18.750;2023-05-20T16:10:54;6.03;;;5.53;;
67041;SDS011;53949;47.790;18.750;2023-05-20T16:13:58;5.78;;;5.25;;
67041;SDS011;53949;47.790;18.750;2023-05-20T16:17:01;6.47;;;5.28;;
67041;SDS011;53949;47.790;18.750;2023-05-20T16:20:04;6.68;;;5.70;;
67041;SDS011;53949;47.790;18.750;2023-05-20T16:23:08;6.82;;;5.30;;
67041;SDS011;53949;47.790;18.750;2023-05-20T16:26:12;5.85;;;5.10;;
67041;SDS011;53949;47.790;18.750;2023-05-20T16:29:16;7.20;;;5.20;;
67041;SDS011;53949;47.790;18.750;2023-05-20T16:32:19;6.55;;;5.00;;
67041;SDS011;53949;47.790;18.750;2023-05-20T16:35:24;6.22;;;5.62;;
67041;SDS011;53949;47.790;18.750;2023-05-20T16:38:27;6.62;;;5.32;;
67041;SDS011;53949;47.790;18.750;2023-05-20T16:41:31;9.45;;;5.72;;
67041;SDS011;53949;47.790;18.750;2023-05-20T16:44:35;6.30;;;5.80;;
67041;SDS011;53949;47.790;18.750;2023-05-20T16:47:41;5.80;;;5.20;;
67041;SDS011;53949;47.790;18.750;2023-05-20T16:50:44;6.72;;;5.00;;
67041;SDS011;53949;47.790;18.750;2023-05-20T16:53:48;6.32;;;5.65;;
67041;SDS011;53949;47.790;18.750;2023-05-20T16:56:51;5.87;;;5.37;;
67041;SDS011;53949;47.790;18.750;2023-05-20T16:59:54;6.82;;;5.45;;
67041;SDS011;53949;47.790;18.750;2023-05-20T17:02:57;7.03;;;5.20;;
67041;SDS011;53949;47.790;18.750;2023-05-20T17:06:01;5.97;;;5.37;;
67041;SDS011;53949;47.790;18.750;2023-05-20T17:09:04;7.70;;;5.80;;
67041;SDS011;53949;47.790;18.750;2023-05-20T17:12:11;8.10;;;5.28;;
67041;SDS011;53949;47.790;18.750;2023-05-20T17:15:14;7.55;;;5.12;;
67041;SDS011;53949;47.790;18.750;2023-05-20T17:18:17;6.53;;;5.18;;
67041;SDS011;53949;47.790;18.750;2023-05-20T17:24:23;8.97;;;5.50;;
67041;SDS011;53949;47.790;18.750;2023-05-20T17:27:26;6.25;;;5.50;;
67041;SDS011;53949;47.790;18.750;2023-05-20T17:30:31;5.90;;;5.35;;
67041;SDS011;53949;47.790;18.750;2023-05-20T17:33:34;5.80;;;5.20;;
67041;SDS011;53949;47.790;18.750;2023-05-20T17:39:41;7.10;;;5.63;;
67041;SDS011;53949;47.790;18.750;2023-05-20T17:45:49;6.90;;;5.78;;
67041;SDS011;53949;47.790;18.750;2023-05-20T17:48:53;6.78;;;4.82;;
67041;SDS011;53949;47.790;18.750;2023-05-20T17:51:55;6.72;;;4.50;;
67041;SDS011;53949;47.790;18.750;2023-05-20T17:58:02;6.60;;;5.00;;
67041;SDS011;53949;47.790;18.750;2023-05-20T18:01:05;11.10;;;5.30;;
67041;SDS011;53949;47.790;18.750;2023-05-20T18:04:11;8.85;;;4.80;;
67041;SDS011;53949;47.790;18.750;2023-05-20T18:07:14;7.57;;;4.85;;
67041;SDS011;53949;47.790;18.750;2023-05-20T18:10:20;6.65;;;4.72;;
67041;SDS011;53949;47.790;18.750;2023-05-20T18:13:23;6.32;;;4.68;;
67041;SDS011;53949;47.790;18.750;2023-05-20T18:16:27;7.40;;;4.87;;
67041;SDS011;53949;47.790;18.750;2023-05-20T18:19:31;5.80;;;4.93;;
67041;SDS011;53949;47.790;18.750;2023-05-20T18:22:35;5.55;;;4.95;;
67041;SDS011;53949;47.790;18.750;2023-05-20T18:25:39;6.93;;;4.90;;
67041;SDS011;53949;47.790;18.750;2023-05-20T18:28:45;6.05;;;4.72;;
67041;SDS011;53949;47.790;18.750;2023-05-20T18:31:48;8.18;;;5.30;;
67041;SDS011;53949;47.790;18.750;2023-05-20T18:34:51;6.40;;;5.32;;
67041;SDS011;53949;47.790;18.750;2023-05-20T18:37:54;7.85;;;5.20;;
67041;SDS011;53949;47.790;18.750;2023-05-20T18:40:58;5.25;;;4.72;;
67041;SDS011;53949;47.790;18.750;2023-05-20T18:44:01;5.57;;;4.97;;
67041;SDS011;53949;47.790;18.750;2023-05-20T18:47:07;5.62;;;4.68;;
67041;SDS011;53949;47.790;18.750;2023-05-20T18:50:10;8.23;;;4.93;;
67041;SDS011;53949;47.790;18.750;2023-05-20T18:53:13;7.90;;;5.37;;
67041;SDS011;53949;47.790;18.750;2023-05-20T18:56:20;11.12;;;6.78;;